createdAt,value
2023-07-30T00:01:15.422Z,18.20
2023-07-30T00:03:46.419Z,18.20
2023-07-30T00:06:17.460Z,18.10
2023-07-30T00:08:48.491Z,18.10
2023-07-30T00:11:19.794Z,18.10
2023-07-30T00:13:50.738Z,18.00
2023-07-30T00:16:24.266Z,18.00
2023-07-30T00:18:55.142Z,17.90
2023-07-30T00:21:26.282Z,17.90
2023-07-30T00:23:57.165Z,17.90
2023-07-30T00:26:28.383Z,17.80
2023-07-30T00:28:59.355Z,17.80
2023-07-30T00:31:32.920Z,17.80
2023-07-30T00:34:03.955Z,17.70
2023-07-30T00:36:34.959Z,17.90
2023-07-30T00:39:08.815Z,17.60
2023-07-30T00:41:40.205Z,17.60
2023-07-30T00:44:11.619Z,17.50
2023-07-30T00:46:45.195Z,17.40
2023-07-30T00:49:16.523Z,17.40
2023-07-30T00:51:48.530Z,17.40
2023-07-30T00:54:19.730Z,17.80
2023-07-30T00:56:55.553Z,17.30
2023-07-30T00:59:26.794Z,17.30
2023-07-30T01:02:01.438Z,17.20
2023-07-30T01:04:32.454Z,17.10
2023-07-30T01:07:03.924Z,17.00
2023-07-30T01:09:35.691Z,17.00
2023-07-30T01:12:08.685Z,17.00
2023-07-30T01:14:41.041Z,16.90
2023-07-30T01:17:15.645Z,16.90
2023-07-30T01:19:46.564Z,16.90
2023-07-30T01:22:20.393Z,16.90
2023-07-30T01:24:51.926Z,16.80
2023-07-30T01:27:28.291Z,16.70
2023-07-30T01:30:06.622Z,16.60
2023-07-30T01:32:38.212Z,16.60
2023-07-30T01:35:12.725Z,16.50
2023-07-30T01:37:48.496Z,16.50
2023-07-30T01:40:19.944Z,16.40
2023-07-30T01:42:52.113Z,16.40
2023-07-30T01:45:23.097Z,16.30
2023-07-30T01:47:54.140Z,16.20
2023-07-30T01:50:25.180Z,16.60
2023-07-30T01:52:58.680Z,16.10
2023-07-30T01:55:29.644Z,16.10
2023-07-30T01:58:00.574Z,16.20
2023-07-30T02:00:31.590Z,16.20
2023-07-30T02:03:02.621Z,16.20
2023-07-30T02:05:33.618Z,16.20
2023-07-30T02:08:07.537Z,16.30
2023-07-30T02:10:38.651Z,16.30
2023-07-30T02:13:09.551Z,16.30
2023-07-30T02:15:44.446Z,16.30
2023-07-30T02:18:15.424Z,16.30
2023-07-30T02:20:46.392Z,16.20
2023-07-30T02:23:20.652Z,16.20
2023-07-30T02:25:51.522Z,16.20
2023-07-30T02:28:22.477Z,16.10
2023-07-30T02:30:53.502Z,16.20
2023-07-30T02:33:24.417Z,16.20
2023-07-30T02:35:55.322Z,16.20
2023-07-30T02:38:28.814Z,16.10
2023-07-30T02:40:59.988Z,16.10
2023-07-30T02:43:30.966Z,16.40
2023-07-30T02:46:01.864Z,16.00
2023-07-30T02:48:33.070Z,16.00
2023-07-30T02:51:04.179Z,16.00
2023-07-30T02:53:37.668Z,15.90
2023-07-30T02:56:08.563Z,15.90
2023-07-30T02:58:39.444Z,16.00
2023-07-30T03:01:11.278Z,16.00
2023-07-30T03:03:42.158Z,16.00
2023-07-30T03:06:13.063Z,16.00
2023-07-30T03:08:46.575Z,16.00
2023-07-30T03:11:17.534Z,15.90
2023-07-30T03:13:48.411Z,15.70
2023-07-30T03:16:19.305Z,16.00
2023-07-30T03:18:50.232Z,16.00
2023-07-30T03:21:21.159Z,16.00
2023-07-30T03:23:54.669Z,16.00
2023-07-30T03:26:25.645Z,16.00
2023-07-30T03:28:56.511Z,16.00
2023-07-30T03:31:29.657Z,15.90
2023-07-30T03:34:01.519Z,15.90
2023-07-30T03:36:32.407Z,15.90
2023-07-30T03:39:05.950Z,15.80
2023-07-30T03:41:37.265Z,15.80
2023-07-30T03:44:08.512Z,15.80
2023-07-30T03:46:39.439Z,15.80
2023-07-30T03:49:10.314Z,15.80
2023-07-30T03:51:42.523Z,15.80
2023-07-30T03:54:16.013Z,15.80
2023-07-30T03:56:47.079Z,15.80
2023-07-30T03:59:17.977Z,15.80
2023-07-30T04:01:48.941Z,15.80
2023-07-30T04:04:20.917Z,15.80
2023-07-30T04:06:52.044Z,15.50
2023-07-30T04:09:25.737Z,15.80
2023-07-30T04:11:56.662Z,16.10
2023-07-30T04:14:27.557Z,15.80
2023-07-30T04:16:58.515Z,15.80
2023-07-30T04:19:29.679Z,15.80
2023-07-30T04:22:00.575Z,15.80
2023-07-30T04:24:34.042Z,15.90
2023-07-30T04:27:05.237Z,15.90
2023-07-30T04:29:36.115Z,15.90
2023-07-30T04:32:07.802Z,15.90
2023-07-30T04:34:38.760Z,16.00
2023-07-30T04:37:10.067Z,16.00
2023-07-30T04:39:43.790Z,16.10
2023-07-30T04:42:16.133Z,16.20
2023-07-30T04:44:47.841Z,16.20
2023-07-30T04:47:18.815Z,16.30
2023-07-30T04:49:49.700Z,16.40
2023-07-30T04:52:20.697Z,16.50
2023-07-30T04:54:54.192Z,16.60
2023-07-30T04:57:25.098Z,16.80
2023-07-30T04:59:56.107Z,16.90
2023-07-30T05:02:27.243Z,17.30
2023-07-30T05:04:58.310Z,17.80
2023-07-30T05:07:29.271Z,18.40
2023-07-30T05:10:02.880Z,19.10
2023-07-30T05:12:33.868Z,19.70
2023-07-30T05:15:04.796Z,20.20
2023-07-30T05:17:35.783Z,20.30
2023-07-30T05:20:07.267Z,20.00
2023-07-30T05:22:38.189Z,19.40
2023-07-30T05:25:12.670Z,18.90
2023-07-30T05:27:43.678Z,18.70
2023-07-30T05:30:15.504Z,18.40
2023-07-30T05:32:46.462Z,18.20
2023-07-30T05:35:18.054Z,18.00
2023-07-30T05:37:48.984Z,17.80
2023-07-30T05:40:22.849Z,17.60
2023-07-30T05:42:53.797Z,17.50
2023-07-30T05:45:24.714Z,17.30
2023-07-30T05:47:55.797Z,17.20
2023-07-30T05:50:26.985Z,17.30
2023-07-30T05:52:58.084Z,17.20
2023-07-30T05:55:31.646Z,17.10
2023-07-30T05:58:02.651Z,17.20
2023-07-30T06:00:33.778Z,17.20
2023-07-30T06:03:05.108Z,17.20
2023-07-30T06:05:36.073Z,17.30
2023-07-30T06:08:07.122Z,17.30
2023-07-30T06:10:42.039Z,17.30
2023-07-30T06:13:13.084Z,17.20
2023-07-30T06:15:44.341Z,17.20
2023-07-30T06:18:29.872Z,17.10
2023-07-30T06:21:00.844Z,17.10
2023-07-30T06:23:31.768Z,17.10
2023-07-30T06:26:08.073Z,17.10
2023-07-30T06:28:52.646Z,17.00
2023-07-30T06:31:23.667Z,17.10
2023-07-30T06:33:56.315Z,17.10
2023-07-30T06:36:27.243Z,17.10
2023-07-30T06:38:58.223Z,17.10
2023-07-30T06:41:31.758Z,17.10
2023-07-30T06:44:02.747Z,17.10
2023-07-30T06:46:31.057Z,17.40
2023-07-30T06:49:02.090Z,17.10
2023-07-30T06:51:33.149Z,17.00
2023-07-30T06:54:04.120Z,17.00
2023-07-30T06:56:40.536Z,17.00
2023-07-30T06:59:11.442Z,16.90
2023-07-30T07:01:42.822Z,16.90
2023-07-30T07:04:14.029Z,16.90
2023-07-30T07:06:45.726Z,16.80
2023-07-30T07:09:16.742Z,16.80
2023-07-30T07:11:50.232Z,16.70
2023-07-30T07:14:21.159Z,16.70
2023-07-30T07:16:52.677Z,16.70
2023-07-30T07:19:24.159Z,16.80
2023-07-30T07:21:55.186Z,16.80
2023-07-30T07:24:29.126Z,16.80
2023-07-30T07:27:02.641Z,16.80
2023-07-30T07:29:33.551Z,16.80
2023-07-30T07:32:04.492Z,16.80
2023-07-30T07:34:35.547Z,16.80
2023-07-30T07:37:07.085Z,16.80
2023-07-30T07:39:37.984Z,16.80
2023-07-30T07:42:11.587Z,16.90
2023-07-30T07:44:45.123Z,16.80
2023-07-30T07:47:16.129Z,16.80
2023-07-30T07:49:47.133Z,16.90
2023-07-30T07:52:18.728Z,16.90
2023-07-30T07:54:49.656Z,16.90
2023-07-30T07:57:23.153Z,16.90
2023-07-30T07:59:54.281Z,17.00
2023-07-30T08:02:25.697Z,17.30
2023-07-30T08:04:56.885Z,17.20
2023-07-30T08:07:27.939Z,17.30
2023-07-30T08:09:58.869Z,17.30
2023-07-30T08:12:32.417Z,17.40
2023-07-30T08:15:03.500Z,17.30
2023-07-30T08:17:34.622Z,17.60
2023-07-30T08:20:05.952Z,17.20
2023-07-30T08:22:36.989Z,17.10
2023-07-30T08:25:09.238Z,17.10
2023-07-30T08:27:42.782Z,16.90
2023-07-30T08:30:15.824Z,17.20
2023-07-30T08:32:46.741Z,17.30
2023-07-30T08:35:17.712Z,17.50
2023-07-30T08:37:48.826Z,17.50
2023-07-30T08:40:19.862Z,17.60
2023-07-30T08:42:57.390Z,17.70
2023-07-30T08:45:28.478Z,17.70
2023-07-30T08:47:59.707Z,17.80
2023-07-30T08:50:31.803Z,17.70
2023-07-30T08:53:04.902Z,17.80
2023-07-30T08:55:38.616Z,17.90
2023-07-30T08:58:14.704Z,17.90
2023-07-30T09:00:51.852Z,17.90
2023-07-30T09:03:24.845Z,18.10
2023-07-30T09:05:55.754Z,18.20
2023-07-30T09:08:27.441Z,18.30
2023-07-30T09:10:58.752Z,18.40
2023-07-30T09:13:33.768Z,18.70
2023-07-30T09:16:13.128Z,18.80
2023-07-30T09:18:44.814Z,18.80
2023-07-30T09:21:16.563Z,18.90
2023-07-30T09:23:49.503Z,18.90
2023-07-30T09:26:20.425Z,18.90
2023-07-30T09:28:53.956Z,19.10
2023-07-30T09:31:25.036Z,19.20
2023-07-30T09:33:55.945Z,19.30
2023-07-30T09:36:26.909Z,19.40
2023-07-30T09:38:58.319Z,19.60
2023-07-30T09:41:29.907Z,19.50
2023-07-30T09:44:05.019Z,19.50
2023-07-30T09:46:36.072Z,19.50
2023-07-30T09:49:08.713Z,19.40
2023-07-30T09:51:41.184Z,19.50
2023-07-30T09:54:13.177Z,20.10
2023-07-30T09:56:45.630Z,20.00
2023-07-30T09:59:19.144Z,20.20
2023-07-30T10:01:54.616Z,20.50
2023-07-30T10:04:26.336Z,20.50
2023-07-30T10:07:02.203Z,20.60
2023-07-30T10:09:39.754Z,20.70
2023-07-30T10:12:11.731Z,20.70
2023-07-30T10:14:46.354Z,20.70
2023-07-30T10:17:17.565Z,20.80
2023-07-30T10:19:52.624Z,20.80
2023-07-30T10:22:27.537Z,21.00
2023-07-30T10:25:03.366Z,21.20
2023-07-30T10:27:41.942Z,21.30
2023-07-30T10:30:20.807Z,21.50
2023-07-30T10:33:05.901Z,21.50
2023-07-30T10:35:44.400Z,21.50
2023-07-30T10:38:23.392Z,21.40
2023-07-30T10:41:04.991Z,21.40
2023-07-30T10:43:38.808Z,21.20
2023-07-30T10:46:14.820Z,21.20
2023-07-30T10:48:47.282Z,21.20
2023-07-30T10:51:19.847Z,21.20
2023-07-30T10:53:52.206Z,21.50
2023-07-30T10:56:27.059Z,21.80
2023-07-30T10:58:58.992Z,21.80
2023-07-30T11:01:32.575Z,21.90
2023-07-30T11:04:03.601Z,22.00
2023-07-30T11:06:34.615Z,21.90
2023-07-30T11:09:05.882Z,21.90
2023-07-30T11:11:37.048Z,21.70
2023-07-30T11:14:08.543Z,21.40
2023-07-30T11:16:42.105Z,21.30
2023-07-30T11:19:14.986Z,21.10
2023-07-30T11:21:51.228Z,20.90
2023-07-30T11:24:25.840Z,20.90
2023-07-30T11:27:04.133Z,21.10
2023-07-30T11:29:35.078Z,21.20
2023-07-30T11:32:09.691Z,21.30
2023-07-30T11:34:41.334Z,21.40
2023-07-30T11:37:12.459Z,21.60
2023-07-30T11:39:45.041Z,21.90
2023-07-30T11:42:16.827Z,22.00
2023-07-30T11:44:48.005Z,22.00
2023-07-30T11:47:29.337Z,21.90
2023-07-30T11:50:00.686Z,21.70
2023-07-30T11:52:31.674Z,21.70
2023-07-30T11:55:05.807Z,21.80
2023-07-30T11:57:38.382Z,21.90
2023-07-30T12:00:12.418Z,21.90
2023-07-30T12:02:46.243Z,21.90
2023-07-30T12:05:20.570Z,21.90
2023-07-30T12:07:51.993Z,22.10
2023-07-30T12:10:23.041Z,21.80
2023-07-30T12:12:56.179Z,21.80
2023-07-30T12:15:27.764Z,21.80
2023-07-30T12:18:01.547Z,21.80
2023-07-30T12:20:32.577Z,21.60
2023-07-30T12:23:05.221Z,21.60
2023-07-30T12:25:39.169Z,21.60
2023-07-30T12:28:10.273Z,21.60
2023-07-30T12:30:44.679Z,21.70
2023-07-30T12:33:20.178Z,21.70
2023-07-30T12:35:51.471Z,21.60
2023-07-30T12:38:27.375Z,21.70
2023-07-30T12:40:58.306Z,21.80
2023-07-30T12:43:29.263Z,21.80
2023-07-30T12:46:00.188Z,21.80
2023-07-30T12:48:33.827Z,22.00
2023-07-30T12:51:04.897Z,22.00
2023-07-30T12:53:35.938Z,21.70
2023-07-30T12:56:07.316Z,21.70
2023-07-30T12:58:38.274Z,21.80
2023-07-30T13:01:09.313Z,21.90
2023-07-30T13:03:46.403Z,22.30
2023-07-30T13:06:17.464Z,22.30
2023-07-30T13:08:48.486Z,22.50
2023-07-30T13:11:19.457Z,22.60
2023-07-30T13:13:50.587Z,22.70
2023-07-30T13:16:21.934Z,22.70
2023-07-30T13:19:35.670Z,22.90
2023-07-30T13:22:22.350Z,22.50
2023-07-30T13:25:01.601Z,22.30
2023-07-30T13:27:34.308Z,22.10
2023-07-30T13:30:11.090Z,21.90
2023-07-30T13:32:42.530Z,21.80
2023-07-30T13:35:16.375Z,21.70
2023-07-30T13:37:47.390Z,21.60
2023-07-30T13:40:18.416Z,21.60
2023-07-30T13:42:49.970Z,21.60
2023-07-30T13:45:21.151Z,21.60
2023-07-30T13:47:52.544Z,21.50
2023-07-30T13:50:26.226Z,21.90
2023-07-30T13:52:57.362Z,21.80
2023-07-30T13:55:28.441Z,21.80
2023-07-30T13:57:59.436Z,21.90
2023-07-30T14:00:30.510Z,21.90
2023-07-30T14:03:01.912Z,21.90
2023-07-30T14:05:41.542Z,22.00
2023-07-30T14:08:13.180Z,22.00
2023-07-30T14:10:44.630Z,21.90
2023-07-30T14:13:15.599Z,22.00
2023-07-30T14:15:46.603Z,22.20
2023-07-30T14:18:17.515Z,22.20
2023-07-30T14:20:52.075Z,22.30
2023-07-30T14:23:23.167Z,22.30
2023-07-30T14:25:54.127Z,22.20
2023-07-30T14:28:25.299Z,22.30
2023-07-30T14:30:56.248Z,22.20
2023-07-30T14:33:27.627Z,22.00
2023-07-30T14:36:01.299Z,21.90
2023-07-30T14:38:35.249Z,21.80
2023-07-30T14:41:07.030Z,21.80
2023-07-30T14:43:38.013Z,21.80
2023-07-30T14:46:14.761Z,21.80
2023-07-30T14:48:47.316Z,21.80
2023-07-30T14:51:21.825Z,21.80
2023-07-30T14:53:52.994Z,21.70
2023-07-30T14:56:24.167Z,21.60
2023-07-30T14:58:57.184Z,21.40
2023-07-30T15:01:32.996Z,21.40
2023-07-30T15:04:05.861Z,21.50
2023-07-30T15:06:39.948Z,21.50
2023-07-30T15:09:11.232Z,21.70
2023-07-30T15:11:42.379Z,21.90
2023-07-30T15:14:13.598Z,22.00
2023-07-30T15:16:44.561Z,21.90
2023-07-30T15:19:15.575Z,22.00
2023-07-30T15:21:49.407Z,21.90
2023-07-30T15:24:20.740Z,22.00
2023-07-30T15:26:51.803Z,21.70
2023-07-30T15:29:24.534Z,21.50
2023-07-30T15:31:55.654Z,21.80
2023-07-30T15:34:29.810Z,21.50
2023-07-30T15:37:03.596Z,21.50
2023-07-30T15:39:35.909Z,21.50
2023-07-30T15:42:07.656Z,21.40
2023-07-30T15:44:38.610Z,21.40
2023-07-30T15:47:12.072Z,21.50
2023-07-30T15:49:43.047Z,21.30
2023-07-30T15:52:16.744Z,21.20
2023-07-30T15:54:47.722Z,21.10
2023-07-30T15:57:18.696Z,21.30
2023-07-30T15:59:53.824Z,21.50
2023-07-30T16:02:24.921Z,21.50
2023-07-30T16:04:55.966Z,21.60
2023-07-30T16:07:29.621Z,21.60
2023-07-30T16:10:00.846Z,21.60
2023-07-30T16:12:31.773Z,21.60
2023-07-30T16:15:02.742Z,21.70
2023-07-30T16:17:33.695Z,21.80
2023-07-30T16:20:05.987Z,21.80
2023-07-30T16:22:40.079Z,21.80
2023-07-30T16:25:12.084Z,21.80
2023-07-30T16:27:43.233Z,21.80
2023-07-30T16:30:14.535Z,21.80
2023-07-30T16:32:45.542Z,21.70
2023-07-30T16:35:16.566Z,21.70
2023-07-30T16:37:50.534Z,21.70
2023-07-30T16:40:21.742Z,21.90
2023-07-30T16:42:52.862Z,21.70
2023-07-30T16:45:25.394Z,21.80
2023-07-30T16:47:56.768Z,21.70
2023-07-30T16:50:27.893Z,21.70
2023-07-30T16:53:01.798Z,21.70
2023-07-30T16:55:35.321Z,21.70
2023-07-30T16:58:06.804Z,21.60
2023-07-30T17:00:37.957Z,21.70
2023-07-30T17:03:09.408Z,21.70
2023-07-30T17:05:40.521Z,21.70
2023-07-30T17:08:14.996Z,21.60
2023-07-30T17:10:46.157Z,21.70
2023-07-30T17:13:17.584Z,21.70
2023-07-30T17:15:51.345Z,21.70
2023-07-30T17:18:24.172Z,21.70
2023-07-30T17:21:05.553Z,21.60
2023-07-30T17:23:39.152Z,21.80
2023-07-30T17:26:10.162Z,21.60
2023-07-30T17:28:41.130Z,21.70
2023-07-30T17:31:14.734Z,21.70
2023-07-30T17:33:45.866Z,21.70
2023-07-30T17:36:17.008Z,21.60
2023-07-30T17:38:50.670Z,21.70
2023-07-30T17:41:21.667Z,21.60
2023-07-30T17:43:52.771Z,21.50
2023-07-30T17:46:24.858Z,21.50
2023-07-30T17:48:55.988Z,21.50
2023-07-30T17:51:27.181Z,21.50
2023-07-30T17:54:01.128Z,21.50
2023-07-30T17:56:32.193Z,21.50
2023-07-30T17:59:03.104Z,21.50
2023-07-30T18:01:37.700Z,21.40
2023-07-30T18:04:08.749Z,21.40
2023-07-30T18:06:40.016Z,21.30
2023-07-30T18:09:13.798Z,21.40
2023-07-30T18:11:45.764Z,21.40
2023-07-30T18:14:16.939Z,21.40
2023-07-30T18:16:47.943Z,21.30
2023-07-30T18:19:19.094Z,21.30
2023-07-30T18:21:50.113Z,21.20
2023-07-30T18:24:23.885Z,21.20
2023-07-30T18:26:54.840Z,21.10
2023-07-30T18:29:25.754Z,21.10
2023-07-30T18:31:57.004Z,21.10
2023-07-30T18:34:30.557Z,21.10
2023-07-30T18:37:01.915Z,21.00
2023-07-30T18:39:36.061Z,20.90
2023-07-30T18:42:07.566Z,20.80
2023-07-30T18:44:38.692Z,20.60
2023-07-30T18:47:09.891Z,20.60
2023-07-30T18:49:41.039Z,20.60
2023-07-30T18:52:12.127Z,20.40
2023-07-30T18:54:45.800Z,20.30
2023-07-30T18:57:17.183Z,20.10
2023-07-30T18:59:48.171Z,19.90
2023-07-30T19:02:19.345Z,19.70
2023-07-30T19:04:50.444Z,19.50
2023-07-30T19:07:21.585Z,19.30
2023-07-30T19:09:55.169Z,19.10
2023-07-30T19:12:26.354Z,19.00
2023-07-30T19:14:57.350Z,18.80
2023-07-30T19:17:28.730Z,18.80
2023-07-30T19:19:59.929Z,18.70
2023-07-30T19:22:31.093Z,18.80
2023-07-30T19:25:04.756Z,18.60
2023-07-30T19:27:35.740Z,18.50
2023-07-30T19:30:07.745Z,18.40
2023-07-30T19:32:40.205Z,18.30
2023-07-30T19:35:12.172Z,18.30
2023-07-30T19:37:43.122Z,18.10
2023-07-30T19:40:16.946Z,18.20
2023-07-30T19:42:47.974Z,18.20
2023-07-30T19:45:21.703Z,17.90
2023-07-30T19:47:53.273Z,17.90
2023-07-30T19:50:30.929Z,17.90
2023-07-30T19:53:08.747Z,17.80
2023-07-30T19:55:43.465Z,17.90
2023-07-30T19:58:27.918Z,17.90
2023-07-30T20:00:59.639Z,17.80
2023-07-30T20:03:35.012Z,17.80
2023-07-30T20:06:07.712Z,17.80
2023-07-30T20:08:39.968Z,18.00
2023-07-30T20:11:13.911Z,17.70
2023-07-30T20:13:45.189Z,17.70
2023-07-30T20:16:16.962Z,18.00
2023-07-30T20:18:48.081Z,17.60
2023-07-30T20:21:19.198Z,17.60
2023-07-30T20:23:51.956Z,17.60
2023-07-30T20:26:25.629Z,17.50
2023-07-30T20:28:59.957Z,17.50
2023-07-30T20:31:32.977Z,17.40
2023-07-30T20:34:03.995Z,17.40
2023-07-30T20:36:35.201Z,17.40
2023-07-30T20:39:06.897Z,17.40
2023-07-30T20:41:40.594Z,17.30
2023-07-30T20:44:11.894Z,17.30
2023-07-30T20:46:42.819Z,17.40
2023-07-30T20:49:13.943Z,17.30
2023-07-30T20:51:44.954Z,17.20
2023-07-30T20:54:17.147Z,17.20
2023-07-30T20:56:50.998Z,17.20
2023-07-30T20:59:22.824Z,17.10
2023-07-30T21:01:53.788Z,17.10
2023-07-30T21:04:24.849Z,17.10
2023-07-30T21:06:55.954Z,17.20
2023-07-30T21:09:27.259Z,17.20
2023-07-30T21:12:02.789Z,17.20
2023-07-30T21:14:33.900Z,17.30
2023-07-30T21:17:04.889Z,17.30
2023-07-30T21:19:36.237Z,17.30
2023-07-30T21:22:13.117Z,17.40
2023-07-30T21:24:44.138Z,17.30
2023-07-30T21:27:17.910Z,17.40
2023-07-30T21:29:49.116Z,17.40
2023-07-30T21:32:23.172Z,17.70
2023-07-30T21:34:54.261Z,17.20
2023-07-30T21:37:25.428Z,17.40
2023-07-30T21:40:01.355Z,17.10
2023-07-30T21:42:35.478Z,17.00
2023-07-30T21:45:06.922Z,17.00
2023-07-30T21:47:38.014Z,16.90
2023-07-30T21:50:10.132Z,16.90
2023-07-30T21:52:42.530Z,17.00
2023-07-30T21:55:13.509Z,16.90
2023-07-30T21:57:47.738Z,16.80
2023-07-30T22:00:19.361Z,17.00
2023-07-30T22:02:50.666Z,17.10
2023-07-30T22:05:22.243Z,17.00
2023-07-30T22:07:53.632Z,16.90
2023-07-30T22:10:24.921Z,16.90
2023-07-30T22:12:58.912Z,16.90
2023-07-30T22:15:30.162Z,16.90
2023-07-30T22:18:01.633Z,16.90
2023-07-30T22:20:32.922Z,16.90
2023-07-30T22:23:04.525Z,16.90
2023-07-30T22:25:35.968Z,17.10
2023-07-30T22:28:10.611Z,16.90
2023-07-30T22:30:41.308Z,16.80
2023-07-30T22:33:12.876Z,16.90
2023-07-30T22:35:44.205Z,16.80
2023-07-30T22:38:15.506Z,16.90
2023-07-30T22:40:46.804Z,16.90
2023-07-30T22:43:20.773Z,16.90
2023-07-30T22:45:52.913Z,17.00
2023-07-30T22:48:24.525Z,16.90
2023-07-30T22:50:56.002Z,16.90
2023-07-30T22:53:27.410Z,16.90
2023-07-30T22:55:58.900Z,16.90
2023-07-30T22:58:33.974Z,16.90
2023-07-30T23:01:05.814Z,16.90
2023-07-30T23:03:37.247Z,16.90
2023-07-30T23:06:08.764Z,16.90
2023-07-30T23:08:41.156Z,17.00
2023-07-30T23:11:12.723Z,17.00
2023-07-30T23:13:46.343Z,16.90
2023-07-30T23:16:17.790Z,16.90
2023-07-30T23:18:49.080Z,16.90
2023-07-30T23:21:20.269Z,16.90
2023-07-30T23:23:53.321Z,16.90
2023-07-30T23:26:24.534Z,16.90
2023-07-30T23:28:58.176Z,16.90
2023-07-30T23:31:32.274Z,17.00
2023-07-30T23:34:03.877Z,16.90
2023-07-30T23:36:37.972Z,16.90
2023-07-30T23:39:09.260Z,17.00
2023-07-30T23:41:41.205Z,16.90
2023-07-30T23:44:15.804Z,16.90
2023-07-30T23:46:50.501Z,17.00
2023-07-30T23:49:25.434Z,17.00
2023-07-30T23:51:58.427Z,17.00
2023-07-30T23:54:29.405Z,17.00
2023-07-30T23:57:00.615Z,17.00
2023-07-30T23:59:37.016Z,17.00
